sensor_id;sensor_type;location;lat;lon;timestamp;pressure;altitude;pressure_sealevel;temperature
48628;BMP280;34424;52.234;6.500;2023-06-04T00:00:19;102116.8;;;10.04
48628;BMP280;34424;52.234;6.500;2023-06-04T00:05:19;102119;;;9.91
48628;BMP280;34424;52.234;6.500;2023-06-04T00:10:19;102115.4;;;9.78
48628;BMP280;34424;52.234;6.500;2023-06-04T00:15:19;102117.9;;;9.67
48628;BMP280;34424;52.234;6.500;2023-06-04T00:20:19;102114.2;;;9.61
48628;BMP280;34424;52.234;6.500;2023-06-04T00:25:19;102116.6;;;9.57
48628;BMP280;34424;52.234;6.500;2023-06-04T00:30:19;102115.3;;;9.44
48628;BMP280;34424;52.234;6.500;2023-06-04T00:35:19;102116.6;;;9.33
48628;BMP280;34424;52.234;6.500;2023-06-04T00:40:19;102117.2;;;9.21
48628;BMP280;34424;52.234;6.500;2023-06-04T00:45:19;102116.1;;;9.05
48628;BMP280;34424;52.234;6.500;2023-06-04T00:50:19;102119.5;;;8.87
48628;BMP280;34424;52.234;6.500;2023-06-04T00:55:19;102116.9;;;8.75
48628;BMP280;34424;52.234;6.500;2023-06-04T01:00:19;102117.5;;;8.6
48628;BMP280;34424;52.234;6.500;2023-06-04T01:05:21;102118.2;;;8.53
48628;BMP280;34424;52.234;6.500;2023-06-04T01:10:19;102111.8;;;8.4
48628;BMP280;34424;52.234;6.500;2023-06-04T01:15:19;102120.7;;;8.33
48628;BMP280;34424;52.234;6.500;2023-06-04T01:20:25;102121.3;;;8.29
48628;BMP280;34424;52.234;6.500;2023-06-04T01:25:20;102116.6;;;8.25
48628;BMP280;34424;52.234;6.500;2023-06-04T01:30:19;102119.7;;;8.22
48628;BMP280;34424;52.234;6.500;2023-06-04T01:35:20;102116.9;;;8.13
48628;BMP280;34424;52.234;6.500;2023-06-04T01:40:19;102116;;;8.05
48628;BMP280;34424;52.234;6.500;2023-06-04T01:45:20;102115.6;;;7.98
48628;BMP280;34424;52.234;6.500;2023-06-04T01:50:19;102108.7;;;7.93
48628;BMP280;34424;52.234;6.500;2023-06-04T01:55:19;102099.1;;;7.81
48628;BMP280;34424;52.234;6.500;2023-06-04T02:00:19;102111.8;;;7.7
48628;BMP280;34424;52.234;6.500;2023-06-04T02:05:19;102111.6;;;7.64
48628;BMP280;34424;52.234;6.500;2023-06-04T02:10:19;102109.5;;;7.55
48628;BMP280;34424;52.234;6.500;2023-06-04T02:15:19;102111.5;;;7.51
48628;BMP280;34424;52.234;6.500;2023-06-04T02:20:19;102105.6;;;7.45
48628;BMP280;34424;52.234;6.500;2023-06-04T02:25:19;102107.3;;;7.39
48628;BMP280;34424;52.234;6.500;2023-06-04T02:30:19;102110.6;;;7.32
48628;BMP280;34424;52.234;6.500;2023-06-04T02:35:19;102114.6;;;7.28
48628;BMP280;34424;52.234;6.500;2023-06-04T02:40:19;102112.1;;;7.27
48628;BMP280;34424;52.234;6.500;2023-06-04T02:45:19;102109.3;;;7.24
48628;BMP280;34424;52.234;6.500;2023-06-04T02:50:19;102106.3;;;7.18
48628;BMP280;34424;52.234;6.500;2023-06-04T02:55:19;102103.6;;;7.15
48628;BMP280;34424;52.234;6.500;2023-06-04T03:00:19;102109.7;;;7.11
48628;BMP280;34424;52.234;6.500;2023-06-04T03:05:19;102108;;;7.1
48628;BMP280;34424;52.234;6.500;2023-06-04T03:10:19;102113.8;;;7.05
48628;BMP280;34424;52.234;6.500;2023-06-04T03:15:19;102110.5;;;7.03
48628;BMP280;34424;52.234;6.500;2023-06-04T03:20:19;102107.2;;;7.03
48628;BMP280;34424;52.234;6.500;2023-06-04T03:25:19;102107.7;;;7.06
48628;BMP280;34424;52.234;6.500;2023-06-04T03:30:19;102100.9;;;7.02
48628;BMP280;34424;52.234;6.500;2023-06-04T03:35:19;102101;;;7.09
48628;BMP280;34424;52.234;6.500;2023-06-04T03:40:19;102101.8;;;7.14
48628;BMP280;34424;52.234;6.500;2023-06-04T03:45:19;102107;;;7.14
48628;BMP280;34424;52.234;6.500;2023-06-04T03:50:19;102107.8;;;7.14
48628;BMP280;34424;52.234;6.500;2023-06-04T03:55:19;102110.9;;;7.2
48628;BMP280;34424;52.234;6.500;2023-06-04T04:00:19;102110.2;;;7.28
48628;BMP280;34424;52.234;6.500;2023-06-04T04:05:19;102110;;;7.38
48628;BMP280;34424;52.234;6.500;2023-06-04T04:10:19;102108.1;;;7.44
48628;BMP280;34424;52.234;6.500;2023-06-04T04:15:19;102114.2;;;7.56
48628;BMP280;34424;52.234;6.500;2023-06-04T04:20:19;102115.1;;;7.71
48628;BMP280;34424;52.234;6.500;2023-06-04T04:25:19;102115.3;;;7.86
48628;BMP280;34424;52.234;6.500;2023-06-04T04:30:19;102117.2;;;8.04
48628;BMP280;34424;52.234;6.500;2023-06-04T04:35:19;102119.5;;;8.21
48628;BMP280;34424;52.234;6.500;2023-06-04T04:40:19;102124.1;;;8.41
48628;BMP280;34424;52.234;6.500;2023-06-04T04:45:19;102125.8;;;8.54
48628;BMP280;34424;52.234;6.500;2023-06-04T04:50:19;102125.1;;;8.75
48628;BMP280;34424;52.234;6.500;2023-06-04T04:55:19;102119.2;;;9.17
48628;BMP280;34424;52.234;6.500;2023-06-04T05:00:19;102117.2;;;10.71
48628;BMP280;34424;52.234;6.500;2023-06-04T05:05:19;102119.2;;;12.09
48628;BMP280;34424;52.234;6.500;2023-06-04T05:10:19;102119.1;;;13.46
48628;BMP280;34424;52.234;6.500;2023-06-04T05:15:19;102120.3;;;14.31
48628;BMP280;34424;52.234;6.500;2023-06-04T05:20:19;102118;;;15.08
48628;BMP280;34424;52.234;6.500;2023-06-04T05:25:19;102120.5;;;15.36
48628;BMP280;34424;52.234;6.500;2023-06-04T05:30:19;102112.4;;;15.92
48628;BMP280;34424;52.234;6.500;2023-06-04T05:35:19;102110;;;16.52
48628;BMP280;34424;52.234;6.500;2023-06-04T05:40:19;102108;;;16.68
48628;BMP280;34424;52.234;6.500;2023-06-04T05:45:19;102113.2;;;17.29
48628;BMP280;34424;52.234;6.500;2023-06-04T05:50:19;102122.3;;;18.06
48628;BMP280;34424;52.234;6.500;2023-06-04T05:55:19;102119.1;;;18.13
48628;BMP280;34424;52.234;6.500;2023-06-04T06:00:20;102120.7;;;18.52
48628;BMP280;34424;52.234;6.500;2023-06-04T06:05:19;102123.1;;;18.78
48628;BMP280;34424;52.234;6.500;2023-06-04T06:10:19;102124.6;;;19.29
48628;BMP280;34424;52.234;6.500;2023-06-04T06:15:19;102130.7;;;19
48628;BMP280;34424;52.234;6.500;2023-06-04T06:20:19;102128.3;;;19.57
48628;BMP280;34424;52.234;6.500;2023-06-04T06:25:19;102121.2;;;20.53
48628;BMP280;34424;52.234;6.500;2023-06-04T06:30:19;102128.6;;;21.05
48628;BMP280;34424;52.234;6.500;2023-06-04T06:35:19;102136.7;;;21.19
48628;BMP280;34424;52.234;6.500;2023-06-04T06:40:19;102139.4;;;21.32
48628;BMP280;34424;52.234;6.500;2023-06-04T06:45:19;102139.8;;;21.89
48628;BMP280;34424;52.234;6.500;2023-06-04T06:50:19;102144.3;;;22.03
48628;BMP280;34424;52.234;6.500;2023-06-04T06:55:19;102144.2;;;22.81
48628;BMP280;34424;52.234;6.500;2023-06-04T07:00:19;102142.3;;;21.53
48628;BMP280;34424;52.234;6.500;2023-06-04T07:05:19;102147.7;;;21.92
48628;BMP280;34424;52.234;6.500;2023-06-04T07:10:19;102144.6;;;22.15
48628;BMP280;34424;52.234;6.500;2023-06-04T07:15:19;102152.3;;;22.91
48628;BMP280;34424;52.234;6.500;2023-06-04T07:20:19;102154;;;23.83
48628;BMP280;34424;52.234;6.500;2023-06-04T07:25:19;102150.4;;;23.81
48628;BMP280;34424;52.234;6.500;2023-06-04T07:30:19;102153.6;;;24.31
48628;BMP280;34424;52.234;6.500;2023-06-04T07:35:19;102149;;;24.89
48628;BMP280;34424;52.234;6.500;2023-06-04T07:40:19;102155.9;;;25.19
48628;BMP280;34424;52.234;6.500;2023-06-04T07:45:19;102159.8;;;25.04
48628;BMP280;34424;52.234;6.500;2023-06-04T07:50:19;102161.7;;;25.12
48628;BMP280;34424;52.234;6.500;2023-06-04T07:55:19;102168.6;;;25.96
48628;BMP280;34424;52.234;6.500;2023-06-04T08:00:19;102171;;;25.76
48628;BMP280;34424;52.234;6.500;2023-06-04T08:05:19;102169.1;;;25.93
48628;BMP280;34424;52.234;6.500;2023-06-04T08:10:19;102170;;;25.7
48628;BMP280;34424;52.234;6.500;2023-06-04T08:15:19;102170.6;;;25.95
48628;BMP280;34424;52.234;6.500;2023-06-04T08:20:19;102165.3;;;25.1
48628;BMP280;34424;52.234;6.500;2023-06-04T08:25:19;102170.1;;;26.35
48628;BMP280;34424;52.234;6.500;2023-06-04T08:30:19;102171;;;27.08
48628;BMP280;34424;52.234;6.500;2023-06-04T08:35:20;102177.3;;;27.62
48628;BMP280;34424;52.234;6.500;2023-06-04T08:40:19;102169.6;;;28
48628;BMP280;34424;52.234;6.500;2023-06-04T08:45:20;102175.7;;;28.51
48628;BMP280;34424;52.234;6.500;2023-06-04T08:50:20;102178.7;;;29.05
48628;BMP280;34424;52.234;6.500;2023-06-04T08:55:20;102175.2;;;28.2
48628;BMP280;34424;52.234;6.500;2023-06-04T09:00:20;102178.5;;;28.53
48628;BMP280;34424;52.234;6.500;2023-06-04T09:05:20;102175;;;28.55
48628;BMP280;34424;52.234;6.500;2023-06-04T09:10:20;102179.8;;;28.38
48628;BMP280;34424;52.234;6.500;2023-06-04T09:15:20;102182.4;;;28.06
48628;BMP280;34424;52.234;6.500;2023-06-04T09:20:23;102187.6;;;28.78
48628;BMP280;34424;52.234;6.500;2023-06-04T09:25:23;102186.8;;;28.6
48628;BMP280;34424;52.234;6.500;2023-06-04T09:30:20;102182.8;;;29.37
48628;BMP280;34424;52.234;6.500;2023-06-04T09:35:20;102181.3;;;29.71
48628;BMP280;34424;52.234;6.500;2023-06-04T09:40:20;102181.9;;;28.9
48628;BMP280;34424;52.234;6.500;2023-06-04T09:45:30;102174.4;;;29.02
48628;BMP280;34424;52.234;6.500;2023-06-04T09:50:24;102168.2;;;28.86
48628;BMP280;34424;52.234;6.500;2023-06-04T09:55:20;102172.4;;;29.55
48628;BMP280;34424;52.234;6.500;2023-06-04T10:00:21;102180.4;;;28.87
48628;BMP280;34424;52.234;6.500;2023-06-04T10:05:20;102177.1;;;28.91
48628;BMP280;34424;52.234;6.500;2023-06-04T10:10:20;102176.3;;;28.73
48628;BMP280;34424;52.234;6.500;2023-06-04T10:15:20;102171.6;;;28.78
48628;BMP280;34424;52.234;6.500;2023-06-04T10:20:20;102175.1;;;29.17
48628;BMP280;34424;52.234;6.500;2023-06-04T10:25:20;102172.7;;;29.1
48628;BMP280;34424;52.234;6.500;2023-06-04T10:30:20;102178.3;;;28.99
48628;BMP280;34424;52.234;6.500;2023-06-04T10:35:28;102178.7;;;29.13
48628;BMP280;34424;52.234;6.500;2023-06-04T10:40:20;102176.4;;;28.74
48628;BMP280;34424;52.234;6.500;2023-06-04T10:45:24;102166.5;;;29.52
48628;BMP280;34424;52.234;6.500;2023-06-04T10:50:20;102160.9;;;29.05
48628;BMP280;34424;52.234;6.500;2023-06-04T10:55:20;102159.7;;;28.76
48628;BMP280;34424;52.234;6.500;2023-06-04T11:00:20;102159.8;;;29.03
48628;BMP280;34424;52.234;6.500;2023-06-04T11:05:20;102162.7;;;29.81
48628;BMP280;34424;52.234;6.500;2023-06-04T11:10:20;102157.2;;;29.47
48628;BMP280;34424;52.234;6.500;2023-06-04T11:15:20;102164;;;28.79
48628;BMP280;34424;52.234;6.500;2023-06-04T11:20:20;102157.2;;;28.51
48628;BMP280;34424;52.234;6.500;2023-06-04T11:25:20;102150.7;;;28.72
48628;BMP280;34424;52.234;6.500;2023-06-04T11:30:20;102141.9;;;28.88
48628;BMP280;34424;52.234;6.500;2023-06-04T11:35:20;102145.5;;;28.86
48628;BMP280;34424;52.234;6.500;2023-06-04T11:40:20;102135.4;;;29.31
48628;BMP280;34424;52.234;6.500;2023-06-04T11:45:20;102132.6;;;28.84
48628;BMP280;34424;52.234;6.500;2023-06-04T11:50:20;102131.9;;;28.85
48628;BMP280;34424;52.234;6.500;2023-06-04T11:55:20;102131.3;;;29.46
48628;BMP280;34424;52.234;6.500;2023-06-04T12:00:20;102137;;;28.6
48628;BMP280;34424;52.234;6.500;2023-06-04T12:05:20;102129.3;;;28.78
48628;BMP280;34424;52.234;6.500;2023-06-04T12:10:20;102131.3;;;29.08
48628;BMP280;34424;52.234;6.500;2023-06-04T12:15:22;102125.9;;;28.61
48628;BMP280;34424;52.234;6.500;2023-06-04T12:20:27;102124.5;;;28.5
48628;BMP280;34424;52.234;6.500;2023-06-04T12:25:27;102115.8;;;28.45
48628;BMP280;34424;52.234;6.500;2023-06-04T12:30:20;102121.3;;;29.01
48628;BMP280;34424;52.234;6.500;2023-06-04T12:35:20;102105;;;28.26
48628;BMP280;34424;52.234;6.500;2023-06-04T12:40:20;102104.7;;;28.4
48628;BMP280;34424;52.234;6.500;2023-06-04T12:45:20;102103.8;;;28.73
48628;BMP280;34424;52.234;6.500;2023-06-04T12:50:20;102105.2;;;28.51
48628;BMP280;34424;52.234;6.500;2023-06-04T12:55:20;102099.8;;;28.23
48628;BMP280;34424;52.234;6.500;2023-06-04T13:00:20;102102.8;;;28.38
48628;BMP280;34424;52.234;6.500;2023-06-04T13:05:20;102102;;;28.33
48628;BMP280;34424;52.234;6.500;2023-06-04T13:10:20;102095.5;;;27.85
48628;BMP280;34424;52.234;6.500;2023-06-04T13:15:20;102083.5;;;27.54
48628;BMP280;34424;52.234;6.500;2023-06-04T13:20:20;102091.8;;;26.9
48628;BMP280;34424;52.234;6.500;2023-06-04T13:25:20;102102.5;;;27.1
48628;BMP280;34424;52.234;6.500;2023-06-04T13:30:20;102095.2;;;27.14
48628;BMP280;34424;52.234;6.500;2023-06-04T13:35:20;102088.3;;;27.55
48628;BMP280;34424;52.234;6.500;2023-06-04T13:40:20;102091.9;;;27.12
48628;BMP280;34424;52.234;6.500;2023-06-04T13:45:20;102092.1;;;26.98
48628;BMP280;34424;52.234;6.500;2023-06-04T13:50:20;102081.7;;;26.9
48628;BMP280;34424;52.234;6.500;2023-06-04T13:55:20;102082.6;;;27.04
48628;BMP280;34424;52.234;6.500;2023-06-04T14:00:20;102073.2;;;26.66
48628;BMP280;34424;52.234;6.500;2023-06-04T14:05:20;102077.4;;;26.14
48628;BMP280;34424;52.234;6.500;2023-06-04T14:10:20;102069.6;;;26.46
48628;BMP280;34424;52.234;6.500;2023-06-04T14:15:20;102065.6;;;26.21
48628;BMP280;34424;52.234;6.500;2023-06-04T14:20:20;102065.1;;;25.94
48628;BMP280;34424;52.234;6.500;2023-06-04T14:25:20;102065.6;;;26.09
48628;BMP280;34424;52.234;6.500;2023-06-04T14:30:21;102055;;;26.04
48628;BMP280;34424;52.234;6.500;2023-06-04T14:35:21;102055.8;;;25.71
48628;BMP280;34424;52.234;6.500;2023-06-04T14:40:22;102059.1;;;25.98
48628;BMP280;34424;52.234;6.500;2023-06-04T14:45:22;102042.8;;;25.78
48628;BMP280;34424;52.234;6.500;2023-06-04T14:50:23;102046.3;;;25.91
48628;BMP280;34424;52.234;6.500;2023-06-04T14:55:24;102037.5;;;26.24
48628;BMP280;34424;52.234;6.500;2023-06-04T15:00:24;102040.1;;;26.97
48628;BMP280;34424;52.234;6.500;2023-06-04T15:05:24;102035.9;;;26.84
48628;BMP280;34424;52.234;6.500;2023-06-04T15:10:25;102025.2;;;27.04
48628;BMP280;34424;52.234;6.500;2023-06-04T15:15:25;102024.3;;;27.47
48628;BMP280;34424;52.234;6.500;2023-06-04T15:20:30;102016.5;;;27.58
48628;BMP280;34424;52.234;6.500;2023-06-04T15:25:27;102024.7;;;27.33
48628;BMP280;34424;52.234;6.500;2023-06-04T15:30:27;102015.1;;;27
48628;BMP280;34424;52.234;6.500;2023-06-04T15:35:28;102017.8;;;27.18
48628;BMP280;34424;52.234;6.500;2023-06-04T15:40:28;102017.9;;;26.61
48628;BMP280;34424;52.234;6.500;2023-06-04T15:45:30;102022.3;;;26.66
48628;BMP280;34424;52.234;6.500;2023-06-04T15:50:20;102017.5;;;26.71
48628;BMP280;34424;52.234;6.500;2023-06-04T15:55:20;102010.2;;;26.92
48628;BMP280;34424;52.234;6.500;2023-06-04T16:00:20;102010.5;;;27.12
48628;BMP280;34424;52.234;6.500;2023-06-04T16:05:20;102013.4;;;26.51
48628;BMP280;34424;52.234;6.500;2023-06-04T16:10:20;102011.5;;;26.54
48628;BMP280;34424;52.234;6.500;2023-06-04T16:15:20;102010.1;;;26
48628;BMP280;34424;52.234;6.500;2023-06-04T16:20:20;102004.5;;;25.96
48628;BMP280;34424;52.234;6.500;2023-06-04T16:25:20;102004.4;;;25.7
48628;BMP280;34424;52.234;6.500;2023-06-04T16:30:20;102000.7;;;26.07
48628;BMP280;34424;52.234;6.500;2023-06-04T16:35:20;101996.6;;;25.91
48628;BMP280;34424;52.234;6.500;2023-06-04T16:40:20;101987.3;;;25.96
48628;BMP280;34424;52.234;6.500;2023-06-04T16:45:20;101989;;;25.63
48628;BMP280;34424;52.234;6.500;2023-06-04T16:50:20;101990.4;;;25.29
48628;BMP280;34424;52.234;6.500;2023-06-04T16:55:21;101989.1;;;25.04
48628;BMP280;34424;52.234;6.500;2023-06-04T17:00:20;101994.4;;;24.93
48628;BMP280;34424;52.234;6.500;2023-06-04T17:05:20;101994.8;;;24.81
48628;BMP280;34424;52.234;6.500;2023-06-04T17:10:20;101988;;;24.7
48628;BMP280;34424;52.234;6.500;2023-06-04T17:15:20;101987.1;;;24.13
48628;BMP280;34424;52.234;6.500;2023-06-04T17:20:20;101991.2;;;24.07
48628;BMP280;34424;52.234;6.500;2023-06-04T17:25:20;101986.9;;;23.96
48628;BMP280;34424;52.234;6.500;2023-06-04T17:30:20;101988.1;;;23.87
48628;BMP280;34424;52.234;6.500;2023-06-04T17:35:20;101989.8;;;23.38
48628;BMP280;34424;52.234;6.500;2023-06-04T17:40:20;101998;;;23.12
48628;BMP280;34424;52.234;6.500;2023-06-04T17:45:20;101994.1;;;22.6
48628;BMP280;34424;52.234;6.500;2023-06-04T17:50:20;102000.2;;;22.45
48628;BMP280;34424;52.234;6.500;2023-06-04T17:55:20;102001.8;;;21.38
48628;BMP280;34424;52.234;6.500;2023-06-04T18:00:20;102005.8;;;20.65
48628;BMP280;34424;52.234;6.500;2023-06-04T18:05:20;102012.8;;;20.28
48628;BMP280;34424;52.234;6.500;2023-06-04T18:10:20;102011.6;;;19.94
48628;BMP280;34424;52.234;6.500;2023-06-04T18:15:21;102014.4;;;19.53
48628;BMP280;34424;52.234;6.500;2023-06-04T18:20:20;102019.9;;;19.26
48628;BMP280;34424;52.234;6.500;2023-06-04T18:25:21;102021.4;;;18.99
48628;BMP280;34424;52.234;6.500;2023-06-04T18:30:20;102024.8;;;18.66
48628;BMP280;34424;52.234;6.500;2023-06-04T18:35:20;102033.3;;;18.38
48628;BMP280;34424;52.234;6.500;2023-06-04T18:40:20;102035.7;;;17.96
48628;BMP280;34424;52.234;6.500;2023-06-04T18:45:20;102048.8;;;17.61
48628;BMP280;34424;52.234;6.500;2023-06-04T18:50:20;102050.6;;;17.31
48628;BMP280;34424;52.234;6.500;2023-06-04T18:55:20;102052.9;;;17.07
48628;BMP280;34424;52.234;6.500;2023-06-04T19:00:20;102061.7;;;16.85
48628;BMP280;34424;52.234;6.500;2023-06-04T19:05:20;102059.7;;;16.74
48628;BMP280;34424;52.234;6.500;2023-06-04T19:10:20;102060;;;16.47
48628;BMP280;34424;52.234;6.500;2023-06-04T19:15:20;102059.8;;;16.22
48628;BMP280;34424;52.234;6.500;2023-06-04T19:20:20;102070.2;;;15.96
48628;BMP280;34424;52.234;6.500;2023-06-04T19:25:20;102074.9;;;15.79
48628;BMP280;34424;52.234;6.500;2023-06-04T19:30:20;102072.2;;;15.58
48628;BMP280;34424;52.234;6.500;2023-06-04T19:35:20;102081.6;;;15.32
48628;BMP280;34424;52.234;6.500;2023-06-04T19:40:20;102086;;;14.99
48628;BMP280;34424;52.234;6.500;2023-06-04T19:45:20;102090.1;;;14.69
48628;BMP280;34424;52.234;6.500;2023-06-04T19:50:20;102102.3;;;14.44
48628;BMP280;34424;52.234;6.500;2023-06-04T19:55:20;102110.8;;;14.18
48628;BMP280;34424;52.234;6.500;2023-06-04T20:00:20;102115.6;;;14.02
48628;BMP280;34424;52.234;6.500;2023-06-04T20:05:20;102119.5;;;14.04
48628;BMP280;34424;52.234;6.500;2023-06-04T20:10:20;102118.9;;;14.06
48628;BMP280;34424;52.234;6.500;2023-06-04T20:15:20;102123.5;;;13.65
48628;BMP280;34424;52.234;6.500;2023-06-04T20:20:20;102125.8;;;13.34
48628;BMP280;34424;52.234;6.500;2023-06-04T20:25:20;102132;;;13.11
48628;BMP280;34424;52.234;6.500;2023-06-04T20:30:20;102132.6;;;12.94
48628;BMP280;34424;52.234;6.500;2023-06-04T20:35:20;102141;;;12.78
48628;BMP280;34424;52.234;6.500;2023-06-04T20:40:20;102140.3;;;12.61
48628;BMP280;34424;52.234;6.500;2023-06-04T20:45:20;102149.3;;;12.54
48628;BMP280;34424;52.234;6.500;2023-06-04T20:50:20;102153.2;;;12.4
48628;BMP280;34424;52.234;6.500;2023-06-04T20:55:20;102159.9;;;12.29
48628;BMP280;34424;52.234;6.500;2023-06-04T21:00:20;102160.8;;;12.16
48628;BMP280;34424;52.234;6.500;2023-06-04T21:05:20;102158.2;;;12.07
48628;BMP280;34424;52.234;6.500;2023-06-04T21:10:20;102164.7;;;11.98
48628;BMP280;34424;52.234;6.500;2023-06-04T21:15:20;102168.1;;;11.88
48628;BMP280;34424;52.234;6.500;2023-06-04T21:20:20;102169.9;;;11.66
48628;BMP280;34424;52.234;6.500;2023-06-04T21:25:20;102173.2;;;11.58
48628;BMP280;34424;52.234;6.500;2023-06-04T21:30:20;102178.6;;;11.46
48628;BMP280;34424;52.234;6.500;2023-06-04T21:35:20;102180.5;;;11.39
48628;BMP280;34424;52.234;6.500;2023-06-04T21:40:20;102187.1;;;11.3
48628;BMP280;34424;52.234;6.500;2023-06-04T21:45:20;102192.9;;;11.17
48628;BMP280;34424;52.234;6.500;2023-06-04T21:50:20;102193.9;;;11.04
48628;BMP280;34424;52.234;6.500;2023-06-04T21:55:20;102190.9;;;10.94
48628;BMP280;34424;52.234;6.500;2023-06-04T22:00:20;102189.7;;;10.87
48628;BMP280;34424;52.234;6.500;2023-06-04T22:05:20;102193.9;;;10.81
48628;BMP280;34424;52.234;6.500;2023-06-04T22:10:20;102198.3;;;10.69
48628;BMP280;34424;52.234;6.500;2023-06-04T22:15:20;102206.6;;;10.59
48628;BMP280;34424;52.234;6.500;2023-06-04T22:20:20;102200.8;;;10.51
48628;BMP280;34424;52.234;6.500;2023-06-04T22:25:20;102200.5;;;10.47
48628;BMP280;34424;52.234;6.500;2023-06-04T22:30:20;102206.3;;;10.41
48628;BMP280;34424;52.234;6.500;2023-06-04T22:35:20;102209;;;10.33
48628;BMP280;34424;52.234;6.500;2023-06-04T22:40:20;102206.7;;;10.34
48628;BMP280;34424;52.234;6.500;2023-06-04T22:45:20;102200.1;;;10.23
48628;BMP280;34424;52.234;6.500;2023-06-04T22:50:20;102197.8;;;10.11
48628;BMP280;34424;52.234;6.500;2023-06-04T22:55:20;102201.7;;;10.05
48628;BMP280;34424;52.234;6.500;2023-06-04T23:00:20;102205.7;;;10.02
48628;BMP280;34424;52.234;6.500;2023-06-04T23:05:20;102208.6;;;9.94
48628;BMP280;34424;52.234;6.500;2023-06-04T23:10:20;102210.5;;;9.85
48628;BMP280;34424;52.234;6.500;2023-06-04T23:15:22;102216;;;9.71
48628;BMP280;34424;52.234;6.500;2023-06-04T23:20:20;102215.2;;;9.65
48628;BMP280;34424;52.234;6.500;2023-06-04T23:25:20;102219.2;;;9.62
48628;BMP280;34424;52.234;6.500;2023-06-04T23:30:20;102219.5;;;9.58
48628;BMP280;34424;52.234;6.500;2023-06-04T23:35:20;102220.6;;;9.48
48628;BMP280;34424;52.234;6.500;2023-06-04T23:40:20;102221.5;;;9.42
48628;BMP280;34424;52.234;6.500;2023-06-04T23:45:20;102218.2;;;9.38
48628;BMP280;34424;52.234;6.500;2023-06-04T23:50:20;102218.7;;;9.31
48628;BMP280;34424;52.234;6.500;2023-06-04T23:55:20;102215.2;;;9.24
